createdAt,value
2019-02-19T00:00:35.444Z,6.07
2019-02-19T00:03:05.311Z,6.03
2019-02-19T00:05:34.783Z,5.95
2019-02-19T00:08:04.329Z,5.96
2019-02-19T00:10:33.764Z,5.95
2019-02-19T00:13:03.252Z,5.85
2019-02-19T00:15:32.782Z,5.88
2019-02-19T00:18:02.212Z,5.86
2019-02-19T00:20:31.693Z,5.82
2019-02-19T00:23:01.113Z,5.74
2019-02-19T00:25:30.585Z,5.74
2019-02-19T00:28:00.053Z,5.80
2019-02-19T00:30:29.551Z,5.78
2019-02-19T00:32:59.024Z,5.74
2019-02-19T00:35:28.492Z,5.69
2019-02-19T00:37:58.007Z,5.71
2019-02-19T00:40:27.500Z,5.64
2019-02-19T00:42:56.961Z,5.65
2019-02-19T00:45:26.567Z,5.63
2019-02-19T00:47:55.958Z,5.57
2019-02-19T00:50:25.420Z,5.52
2019-02-19T00:52:54.928Z,5.41
2019-02-19T00:55:24.373Z,5.36
2019-02-19T00:57:53.836Z,5.29
2019-02-19T01:00:23.443Z,5.33
2019-02-19T01:02:53.008Z,5.32
2019-02-19T01:05:22.478Z,5.32
2019-02-19T01:07:52.028Z,5.38
2019-02-19T01:10:21.426Z,5.34
2019-02-19T01:12:50.909Z,5.41
2019-02-19T01:15:25.571Z,5.36
2019-02-19T01:17:51.635Z,5.28
2019-02-19T01:20:21.127Z,5.27
2019-02-19T01:22:50.589Z,5.28
2019-02-19T01:25:20.087Z,5.22
2019-02-19T01:27:49.552Z,5.17
2019-02-19T01:30:19.026Z,5.19
2019-02-19T01:32:48.523Z,5.17
2019-02-19T01:35:17.981Z,5.14
2019-02-19T01:37:47.444Z,5.14
2019-02-19T01:40:16.909Z,5.07
2019-02-19T01:42:46.456Z,5.03
2019-02-19T01:45:15.973Z,4.95
2019-02-19T01:47:45.721Z,4.93
2019-02-19T01:50:15.226Z,4.92
2019-02-19T01:52:44.699Z,4.96
2019-02-19T01:55:14.188Z,4.94
2019-02-19T01:57:43.714Z,4.86
2019-02-19T02:00:13.690Z,4.87
2019-02-19T02:02:43.206Z,4.86
2019-02-19T02:05:12.649Z,4.81
2019-02-19T02:07:42.070Z,4.78
2019-02-19T02:10:13.066Z,4.77
2019-02-19T02:12:42.521Z,4.73
2019-02-19T02:15:11.992Z,4.70
2019-02-19T02:17:41.511Z,4.67
2019-02-19T02:20:10.944Z,4.63
2019-02-19T02:22:40.473Z,4.60
2019-02-19T02:25:10.139Z,4.54
2019-02-19T02:27:39.579Z,4.52
2019-02-19T02:30:09.569Z,4.46
2019-02-19T02:32:39.062Z,4.46
2019-02-19T02:35:11.151Z,4.42
2019-02-19T02:37:39.717Z,4.40
2019-02-19T02:40:09.310Z,4.40
2019-02-19T02:42:38.767Z,4.41
2019-02-19T02:45:08.241Z,4.37
2019-02-19T02:47:37.740Z,4.38
2019-02-19T02:50:07.309Z,4.37
2019-02-19T02:52:36.710Z,4.37
2019-02-19T02:55:06.461Z,4.36
2019-02-19T02:57:35.968Z,4.31
2019-02-19T03:00:08.238Z,4.29
2019-02-19T03:02:37.787Z,4.27
2019-02-19T03:05:07.457Z,4.21
2019-02-19T03:07:41.303Z,4.19
2019-02-19T03:10:10.804Z,4.14
2019-02-19T03:12:40.274Z,4.10
2019-02-19T03:15:10.356Z,4.08
2019-02-19T03:17:39.853Z,4.08
2019-02-19T03:20:09.325Z,4.11
2019-02-19T03:22:38.805Z,4.15
2019-02-19T03:25:08.290Z,4.11
2019-02-19T03:27:37.756Z,4.05
2019-02-19T03:30:10.499Z,4.05
2019-02-19T03:32:40.145Z,4.04
2019-02-19T03:35:09.646Z,4.01
2019-02-19T03:37:39.132Z,3.99
2019-02-19T03:40:08.940Z,4.00
2019-02-19T03:42:38.407Z,3.98
2019-02-19T03:45:10.013Z,3.91
2019-02-19T03:47:39.500Z,3.86
2019-02-19T03:50:08.972Z,3.83
2019-02-19T03:52:38.432Z,3.85
2019-02-19T03:55:07.969Z,3.80
2019-02-19T03:57:37.531Z,3.79
2019-02-19T04:00:08.615Z,3.77
2019-02-19T04:02:38.124Z,3.77
2019-02-19T04:05:07.599Z,3.77
2019-02-19T04:07:37.071Z,3.76
2019-02-19T04:10:08.872Z,3.77
2019-02-19T04:12:38.439Z,3.81
2019-02-19T04:15:08.600Z,3.82
2019-02-19T04:17:38.111Z,3.79
2019-02-19T04:20:55.893Z,3.85
2019-02-19T04:23:25.378Z,3.76
2019-02-19T04:25:54.899Z,3.72
2019-02-19T04:28:24.417Z,3.82
2019-02-19T04:30:53.925Z,3.91
2019-02-19T04:33:23.449Z,3.89
2019-02-19T04:35:52.913Z,3.90
2019-02-19T04:38:22.418Z,3.94
2019-02-19T04:40:52.010Z,3.89
2019-02-19T04:43:21.529Z,3.92
2019-02-19T04:45:51.020Z,3.87
2019-02-19T04:48:20.480Z,3.85
2019-02-19T04:50:49.955Z,3.82
2019-02-19T04:53:19.443Z,3.82
2019-02-19T04:55:48.925Z,3.88
2019-02-19T04:58:18.315Z,3.81
2019-02-19T05:00:47.825Z,3.75
2019-02-19T05:03:17.297Z,3.74
2019-02-19T05:05:46.764Z,3.76
2019-02-19T05:08:16.266Z,3.77
2019-02-19T05:10:46.013Z,3.75
2019-02-19T05:13:15.578Z,3.75
2019-02-19T05:15:45.068Z,3.89
2019-02-19T05:18:14.502Z,3.82
2019-02-19T05:20:44.027Z,3.77
2019-02-19T05:23:13.546Z,3.81
2019-02-19T05:25:43.020Z,3.78
2019-02-19T05:28:12.486Z,3.80
2019-02-19T05:30:43.109Z,3.78
2019-02-19T05:33:12.725Z,3.74
2019-02-19T05:35:42.189Z,3.79
2019-02-19T05:38:11.691Z,3.71
2019-02-19T05:40:41.089Z,3.79
2019-02-19T05:43:10.584Z,3.74
2019-02-19T05:45:40.064Z,3.70
2019-02-19T05:48:09.527Z,3.66
2019-02-19T05:50:39.030Z,3.68
2019-02-19T05:53:08.534Z,3.68
2019-02-19T05:55:38.004Z,3.64
2019-02-19T05:58:07.496Z,3.64
2019-02-19T06:00:36.957Z,3.76
2019-02-19T06:03:06.419Z,3.78
2019-02-19T06:05:35.952Z,3.86
2019-02-19T06:08:05.429Z,3.96
2019-02-19T06:10:34.912Z,3.97
2019-02-19T06:13:23.757Z,4.11
2019-02-19T06:15:53.223Z,4.08
2019-02-19T06:18:22.697Z,4.13
2019-02-19T06:20:52.190Z,4.19
2019-02-19T06:23:21.689Z,4.17
2019-02-19T06:25:51.208Z,4.15
2019-02-19T06:28:20.765Z,4.16
2019-02-19T06:30:50.235Z,4.13
2019-02-19T06:33:19.702Z,4.18
2019-02-19T06:35:49.306Z,4.14
2019-02-19T06:38:18.781Z,4.16
2019-02-19T06:40:48.256Z,4.25
2019-02-19T06:43:17.764Z,4.25
2019-02-19T06:45:47.370Z,4.18
2019-02-19T06:48:16.855Z,4.19
2019-02-19T06:50:46.329Z,4.17
2019-02-19T06:53:15.787Z,4.27
2019-02-19T06:55:45.252Z,4.27
2019-02-19T06:58:14.684Z,4.30
2019-02-19T07:00:44.147Z,4.27
2019-02-19T07:03:15.165Z,4.35
2019-02-19T07:05:44.626Z,4.35
2019-02-19T07:08:14.162Z,4.35
2019-02-19T07:10:43.691Z,4.50
2019-02-19T07:13:13.139Z,4.48
2019-02-19T07:15:43.001Z,4.57
2019-02-19T07:18:12.497Z,4.56
2019-02-19T07:20:41.955Z,4.63
2019-02-19T07:23:11.482Z,4.73
2019-02-19T07:25:40.917Z,4.82
2019-02-19T07:28:10.406Z,4.95
2019-02-19T07:30:39.878Z,4.93
2019-02-19T07:33:09.471Z,5.01
2019-02-19T07:35:38.945Z,5.09
2019-02-19T07:38:08.418Z,5.17
2019-02-19T07:40:38.039Z,5.27
2019-02-19T07:43:07.764Z,5.26
2019-02-19T07:45:37.384Z,5.30
2019-02-19T07:48:07.596Z,5.37
2019-02-19T07:50:37.239Z,5.48
2019-02-19T07:53:06.712Z,5.53
2019-02-19T07:55:36.648Z,5.62
2019-02-19T07:58:06.147Z,5.74
2019-02-19T08:00:35.840Z,5.75
2019-02-19T08:03:05.983Z,5.77
2019-02-19T08:05:35.490Z,5.91
2019-02-19T08:08:05.549Z,5.94
2019-02-19T08:10:35.179Z,6.00
2019-02-19T08:13:04.563Z,6.14
2019-02-19T08:15:34.076Z,6.39
2019-02-19T08:18:03.529Z,6.64
2019-02-19T08:20:32.995Z,6.72
2019-02-19T08:23:02.974Z,6.77
2019-02-19T08:25:33.242Z,6.76
2019-02-19T08:28:02.652Z,6.82
2019-02-19T08:30:32.341Z,6.85
2019-02-19T08:33:01.836Z,6.89
2019-02-19T08:35:31.297Z,6.94
2019-02-19T08:38:00.799Z,7.02
2019-02-19T08:40:30.293Z,7.13
2019-02-19T08:42:59.737Z,7.20
2019-02-19T08:45:29.270Z,7.28
2019-02-19T08:47:58.751Z,7.40
2019-02-19T08:50:28.203Z,7.53
2019-02-19T08:52:57.709Z,7.61
2019-02-19T08:55:27.173Z,7.82
2019-02-19T08:57:56.650Z,8.04
2019-02-19T09:00:26.246Z,8.06
2019-02-19T09:02:55.706Z,8.21
2019-02-19T09:05:25.191Z,8.38
2019-02-19T09:07:54.689Z,8.39
2019-02-19T09:10:24.160Z,8.42
2019-02-19T09:12:53.641Z,8.54
2019-02-19T09:15:23.123Z,8.71
2019-02-19T09:17:52.559Z,8.86
2019-02-19T09:20:22.120Z,9.01
2019-02-19T09:22:51.646Z,9.18
2019-02-19T09:25:21.113Z,9.44
2019-02-19T09:27:50.574Z,9.67
2019-02-19T09:30:20.148Z,9.89
2019-02-19T09:32:49.625Z,10.10
2019-02-19T09:35:19.095Z,10.20
2019-02-19T09:37:48.903Z,10.49
2019-02-19T09:40:18.377Z,10.73
2019-02-19T09:42:47.962Z,10.74
2019-02-19T09:45:17.444Z,10.95
2019-02-19T09:47:46.927Z,11.15
2019-02-19T09:50:16.391Z,11.43
2019-02-19T09:52:45.914Z,11.46
2019-02-19T09:55:15.408Z,11.76
2019-02-19T09:57:45.097Z,12.03
2019-02-19T10:00:15.321Z,12.34
2019-02-19T10:02:44.797Z,12.67
2019-02-19T10:05:14.282Z,13.00
2019-02-19T10:07:43.791Z,13.04
2019-02-19T10:10:20.085Z,13.09
2019-02-19T10:12:49.589Z,12.84
2019-02-19T10:15:19.090Z,13.25
2019-02-19T10:17:48.555Z,13.50
2019-02-19T10:20:18.090Z,13.52
2019-02-19T10:22:48.558Z,13.55
2019-02-19T10:25:18.035Z,13.84
2019-02-19T10:27:47.541Z,14.31
2019-02-19T10:30:19.419Z,14.66
2019-02-19T10:32:48.896Z,14.90
2019-02-19T10:35:18.404Z,15.33
2019-02-19T10:37:48.007Z,15.72
2019-02-19T10:40:20.320Z,15.54
2019-02-19T10:42:49.814Z,15.68
2019-02-19T10:45:25.589Z,15.96
2019-02-19T10:47:55.135Z,16.32
2019-02-19T10:50:24.613Z,16.54
2019-02-19T10:52:54.136Z,16.90
2019-02-19T10:55:23.611Z,17.39
2019-02-19T10:57:53.043Z,17.88
2019-02-19T11:00:23.647Z,18.52
2019-02-19T11:02:53.149Z,18.93
2019-02-19T11:05:22.657Z,18.79
2019-02-19T11:07:52.139Z,19.21
2019-02-19T11:10:23.618Z,19.21
2019-02-19T11:12:54.868Z,19.64
2019-02-19T11:15:25.048Z,19.84
2019-02-19T11:17:55.696Z,20.22
2019-02-19T11:20:25.328Z,20.58
2019-02-19T11:22:54.809Z,21.05
2019-02-19T11:25:24.638Z,21.32
2019-02-19T11:27:54.884Z,21.87
2019-02-19T11:30:24.378Z,23.33
2019-02-19T11:32:54.576Z,24.75
2019-02-19T11:35:25.533Z,27.65
2019-02-19T11:37:56.657Z,30.76
2019-02-19T11:40:26.457Z,33.07
2019-02-19T11:42:55.936Z,33.52
2019-02-19T11:45:27.453Z,34.03
2019-02-19T11:47:58.592Z,35.46
2019-02-19T11:50:29.044Z,35.79
2019-02-19T11:52:59.012Z,35.56
2019-02-19T11:55:28.529Z,35.69
2019-02-19T11:57:57.996Z,37.20
2019-02-19T12:00:29.188Z,37.60
2019-02-19T12:02:58.674Z,39.23
2019-02-19T12:05:30.147Z,38.79
2019-02-19T12:08:00.530Z,38.83
2019-02-19T12:10:30.117Z,37.53
2019-02-19T12:13:00.258Z,38.13
2019-02-19T12:15:35.155Z,38.57
2019-02-19T12:18:01.481Z,40.37
2019-02-19T12:20:31.313Z,39.90
2019-02-19T12:23:01.126Z,40.80
2019-02-19T12:25:32.064Z,40.01
2019-02-19T12:28:02.683Z,39.56
2019-02-19T12:30:32.182Z,39.79
2019-02-19T12:33:01.655Z,39.88
2019-02-19T12:35:32.251Z,40.02
2019-02-19T12:38:02.688Z,40.27
2019-02-19T12:40:32.420Z,40.33
2019-02-19T12:43:04.123Z,39.36
2019-02-19T12:45:33.999Z,39.96
2019-02-19T12:48:05.587Z,39.04
2019-02-19T12:50:36.353Z,37.93
2019-02-19T12:53:06.464Z,38.69
2019-02-19T12:55:35.949Z,38.79
2019-02-19T12:58:05.450Z,40.40
2019-02-19T13:00:34.932Z,40.73
2019-02-19T13:03:04.499Z,41.47
2019-02-19T13:05:33.998Z,42.81
2019-02-19T13:08:03.515Z,41.50
2019-02-19T13:10:33.027Z,41.08
2019-02-19T13:13:02.568Z,39.32
2019-02-19T13:15:32.103Z,39.76
2019-02-19T13:18:01.671Z,39.96
2019-02-19T13:20:31.249Z,39.43
2019-02-19T13:23:00.769Z,40.15
2019-02-19T13:25:30.259Z,40.54
2019-02-19T13:27:59.782Z,40.12
2019-02-19T13:30:29.271Z,39.53
2019-02-19T13:32:58.740Z,39.60
2019-02-19T13:35:28.265Z,39.20
2019-02-19T13:37:57.738Z,38.95
2019-02-19T13:40:27.256Z,37.27
2019-02-19T13:42:56.755Z,35.50
2019-02-19T13:45:26.237Z,33.98
2019-02-19T13:47:55.713Z,33.69
2019-02-19T13:50:32.668Z,33.78
2019-02-19T13:53:06.464Z,33.74
2019-02-19T13:55:37.599Z,34.79
2019-02-19T13:58:07.119Z,35.44
2019-02-19T14:00:41.161Z,37.01
2019-02-19T14:03:10.662Z,38.90
2019-02-19T14:05:41.107Z,40.73
2019-02-19T14:08:14.627Z,41.27
2019-02-19T14:10:41.843Z,40.32
2019-02-19T14:13:11.305Z,40.45
2019-02-19T14:15:42.349Z,40.71
2019-02-19T14:18:13.418Z,40.68
2019-02-19T14:21:00.824Z,40.33
2019-02-19T14:23:34.985Z,40.54
2019-02-19T14:26:21.180Z,40.98
2019-02-19T14:28:58.640Z,42.03
2019-02-19T14:31:41.959Z,41.01
2019-02-19T14:34:25.146Z,41.06
2019-02-19T14:36:56.198Z,41.26
2019-02-19T14:39:43.759Z,41.37
2019-02-19T14:42:31.068Z,40.79
2019-02-19T14:45:13.982Z,41.10
2019-02-19T14:47:50.514Z,41.00
2019-02-19T14:50:33.610Z,40.35
2019-02-19T14:53:07.847Z,39.86
2019-02-19T14:55:38.930Z,40.46
2019-02-19T14:58:15.922Z,39.65
2019-02-19T15:00:46.998Z,39.18
2019-02-19T15:03:18.066Z,38.69
2019-02-19T15:06:04.544Z,38.18
2019-02-19T15:08:50.929Z,37.67
2019-02-19T15:11:33.802Z,35.99
2019-02-19T15:14:21.426Z,35.29
2019-02-19T15:17:09.369Z,34.74
2019-02-19T15:19:40.609Z,33.62
2019-02-19T15:22:17.760Z,32.40
2019-02-19T15:25:05.070Z,31.90
2019-02-19T15:27:36.150Z,31.10
2019-02-19T15:30:26.275Z,29.98
2019-02-19T15:32:58.501Z,29.38
2019-02-19T15:35:38.812Z,28.58
2019-02-19T15:38:26.521Z,27.06
2019-02-19T15:41:00.833Z,27.09
2019-02-19T15:43:41.322Z,26.52
2019-02-19T15:46:21.581Z,25.80
2019-02-19T15:49:04.774Z,24.98
2019-02-19T15:51:48.009Z,23.82
2019-02-19T15:54:19.183Z,23.47
2019-02-19T15:56:56.571Z,23.26
2019-02-19T15:59:43.062Z,23.02
2019-02-19T16:02:29.365Z,22.77
2019-02-19T16:05:03.609Z,22.53
2019-02-19T16:07:43.853Z,21.84
2019-02-19T16:10:18.400Z,21.14
2019-02-19T16:12:58.294Z,20.32
2019-02-19T16:15:44.934Z,19.42
2019-02-19T16:18:17.097Z,18.94
2019-02-19T16:21:04.837Z,18.42
2019-02-19T16:23:44.945Z,17.94
2019-02-19T16:26:18.838Z,17.63
2019-02-19T16:28:50.974Z,17.33
2019-02-19T16:31:26.094Z,17.15
2019-02-19T16:33:57.834Z,16.88
2019-02-19T16:36:41.102Z,16.65
2019-02-19T16:39:17.699Z,16.53
2019-02-19T16:41:48.798Z,16.37
2019-02-19T16:44:32.190Z,16.12
2019-02-19T16:47:09.389Z,15.91
2019-02-19T16:49:40.461Z,15.79
2019-02-19T16:52:12.394Z,15.51
2019-02-19T16:54:50.330Z,15.38
2019-02-19T16:57:30.472Z,15.25
2019-02-19T17:00:07.572Z,15.05
2019-02-19T17:02:41.441Z,14.78
2019-02-19T17:05:21.613Z,14.51
2019-02-19T17:07:52.656Z,14.25
2019-02-19T17:10:23.703Z,14.06
2019-02-19T17:13:03.830Z,13.91
2019-02-19T17:15:50.492Z,13.75
2019-02-19T17:18:30.555Z,13.61
2019-02-19T17:21:04.778Z,13.44
2019-02-19T17:23:38.727Z,13.45
2019-02-19T17:26:12.577Z,13.36
2019-02-19T17:28:49.406Z,13.24
2019-02-19T17:31:38.430Z,13.15
2019-02-19T17:34:12.234Z,12.96
2019-02-19T17:36:46.018Z,12.87
2019-02-19T17:39:17.063Z,12.72
2019-02-19T17:41:54.139Z,12.61
2019-02-19T17:44:25.188Z,12.52
2019-02-19T17:47:04.900Z,12.37
2019-02-19T17:49:38.643Z,12.30
2019-02-19T17:52:09.730Z,12.13
2019-02-19T17:54:40.786Z,11.96
2019-02-19T17:57:18.253Z,11.79
2019-02-19T17:59:49.317Z,11.70
2019-02-19T18:02:20.356Z,11.68
2019-02-19T18:04:51.448Z,11.51
2019-02-19T18:07:25.442Z,11.34
2019-02-19T18:09:59.371Z,11.24
2019-02-19T18:12:45.567Z,11.08
2019-02-19T18:15:32.565Z,10.99
2019-02-19T18:18:03.633Z,10.92
2019-02-19T18:20:33.174Z,10.82
2019-02-19T18:23:02.662Z,10.79
2019-02-19T18:25:32.187Z,10.79
2019-02-19T18:28:01.746Z,10.73
2019-02-19T18:30:31.243Z,10.71
2019-02-19T18:33:00.735Z,10.58
2019-02-19T18:35:30.218Z,10.64
2019-02-19T18:37:59.733Z,10.57
2019-02-19T18:40:29.205Z,10.55
2019-02-19T18:42:58.685Z,10.51
2019-02-19T18:45:28.197Z,10.45
2019-02-19T18:47:57.692Z,10.40
2019-02-19T18:50:27.179Z,10.26
2019-02-19T18:52:56.750Z,10.40
2019-02-19T18:55:26.213Z,10.33
2019-02-19T18:57:55.696Z,10.21
2019-02-19T19:00:25.240Z,10.24
2019-02-19T19:02:54.694Z,10.20
2019-02-19T19:05:24.227Z,10.24
2019-02-19T19:07:53.799Z,10.16
2019-02-19T19:10:23.297Z,10.11
2019-02-19T19:12:52.801Z,9.99
2019-02-19T19:15:22.306Z,9.98
2019-02-19T19:17:51.807Z,9.86
2019-02-19T19:20:21.520Z,9.79
2019-02-19T19:22:50.980Z,9.70
2019-02-19T19:25:20.530Z,9.57
2019-02-19T19:27:50.030Z,9.58
2019-02-19T19:30:19.490Z,9.53
2019-02-19T19:32:48.966Z,9.52
2019-02-19T19:35:18.464Z,9.48
2019-02-19T19:37:47.947Z,9.44
2019-02-19T19:40:17.407Z,9.34
2019-02-19T19:42:46.982Z,9.38
2019-02-19T19:45:16.549Z,9.37
2019-02-19T19:47:46.027Z,9.29
2019-02-19T19:50:15.518Z,9.22
2019-02-19T19:52:45.037Z,9.21
2019-02-19T19:55:14.497Z,9.11
2019-02-19T19:57:44.019Z,9.01
2019-02-19T20:00:14.289Z,8.99
2019-02-19T20:02:43.794Z,8.99
2019-02-19T20:05:13.283Z,8.97
2019-02-19T20:07:42.804Z,8.91
2019-02-19T20:10:16.983Z,8.86
2019-02-19T20:12:46.458Z,8.79
2019-02-19T20:15:15.972Z,8.75
2019-02-19T20:17:45.478Z,8.70
2019-02-19T20:20:14.981Z,8.71
2019-02-19T20:22:44.452Z,8.68
2019-02-19T20:25:14.732Z,8.65
2019-02-19T20:27:44.253Z,8.57
2019-02-19T20:30:17.405Z,8.59
2019-02-19T20:32:46.874Z,8.57
2019-02-19T20:35:16.369Z,8.51
2019-02-19T20:37:53.782Z,8.47
2019-02-19T20:40:17.067Z,8.40
2019-02-19T20:42:46.554Z,8.37
2019-02-19T20:45:16.019Z,8.29
2019-02-19T20:47:45.583Z,8.28
2019-02-19T20:50:15.384Z,8.22
2019-02-19T20:52:44.790Z,8.18
2019-02-19T20:55:14.260Z,8.27
2019-02-19T20:57:43.773Z,8.36
2019-02-19T21:00:19.418Z,8.24
2019-02-19T21:02:48.915Z,8.12
2019-02-19T21:05:18.372Z,8.08
2019-02-19T21:07:47.839Z,7.99
2019-02-19T21:10:19.453Z,7.93
2019-02-19T21:12:48.938Z,7.95
2019-02-19T21:15:18.490Z,7.94
2019-02-19T21:17:47.976Z,7.94
2019-02-19T21:20:17.455Z,7.88
2019-02-19T21:22:46.982Z,7.85
2019-02-19T21:25:16.488Z,7.76
2019-02-19T21:27:45.971Z,7.64
2019-02-19T21:30:16.877Z,7.62
2019-02-19T21:32:46.421Z,7.63
2019-02-19T21:35:15.918Z,7.71
2019-02-19T21:37:45.420Z,7.67
2019-02-19T21:40:16.219Z,7.66
2019-02-19T21:42:45.689Z,7.67
2019-02-19T21:45:16.084Z,7.64
2019-02-19T21:47:45.552Z,7.59
2019-02-19T21:50:15.790Z,7.63
2019-02-19T21:52:45.565Z,7.65
2019-02-19T21:55:15.057Z,7.64
2019-02-19T21:57:44.552Z,7.64
2019-02-19T22:00:18.387Z,7.60
2019-02-19T22:02:47.854Z,7.53
2019-02-19T22:05:17.343Z,7.45
2019-02-19T22:07:46.938Z,7.40
2019-02-19T22:10:16.473Z,7.39
2019-02-19T22:12:45.939Z,7.36
2019-02-19T22:15:16.138Z,7.35
2019-02-19T22:17:45.626Z,7.27
2019-02-19T22:20:28.411Z,7.23
2019-02-19T22:22:57.885Z,7.21
2019-02-19T22:25:27.456Z,7.24
2019-02-19T22:27:56.954Z,7.24
2019-02-19T22:30:26.435Z,7.23
2019-02-19T22:32:55.898Z,7.24
2019-02-19T22:35:25.399Z,7.21
2019-02-19T22:37:54.869Z,7.20
2019-02-19T22:40:24.342Z,7.15
2019-02-19T22:42:53.833Z,7.07
2019-02-19T22:45:23.313Z,7.09
2019-02-19T22:47:53.638Z,7.06
2019-02-19T22:50:23.376Z,7.07
2019-02-19T22:52:52.847Z,7.09
2019-02-19T22:55:26.900Z,7.00
2019-02-19T22:57:56.401Z,6.98
2019-02-19T23:00:31.732Z,6.96
2019-02-19T23:03:01.208Z,6.91
2019-02-19T23:05:30.681Z,6.89
2019-02-19T23:08:00.293Z,6.88
2019-02-19T23:10:29.765Z,6.92
2019-02-19T23:12:59.237Z,6.94
2019-02-19T23:15:28.701Z,6.96
2019-02-19T23:17:58.238Z,6.93
2019-02-19T23:20:27.697Z,6.90
2019-02-19T23:22:57.189Z,6.83
2019-02-19T23:25:26.677Z,6.85
2019-02-19T23:27:56.136Z,6.82
2019-02-19T23:30:25.633Z,6.84
2019-02-19T23:32:55.109Z,6.66
2019-02-19T23:35:26.168Z,6.64
2019-02-19T23:37:55.651Z,6.68
2019-02-19T23:40:25.081Z,6.67
2019-02-19T23:42:54.463Z,6.65
2019-02-19T23:45:23.966Z,6.67
2019-02-19T23:47:53.431Z,6.64
2019-02-19T23:50:22.920Z,6.65
2019-02-19T23:52:52.411Z,6.64
2019-02-19T23:55:21.894Z,6.63
2019-02-19T23:57:51.369Z,6.65
